createdAt,value
2019-03-02T00:01:52.431Z,11.70
2019-03-02T00:04:20.939Z,11.40
2019-03-02T00:06:49.469Z,11.00
2019-03-02T00:09:18.009Z,12.30
2019-03-02T00:11:46.576Z,11.43
2019-03-02T00:14:15.717Z,11.70
2019-03-02T00:16:45.784Z,11.50
2019-03-02T00:19:14.296Z,11.50
2019-03-02T00:21:42.887Z,11.40
2019-03-02T00:24:11.457Z,11.60
2019-03-02T00:26:42.899Z,11.53
2019-03-02T00:29:11.068Z,11.83
2019-03-02T00:31:40.584Z,12.07
2019-03-02T00:34:09.181Z,12.93
2019-03-02T00:36:37.769Z,11.70
2019-03-02T00:39:46.217Z,11.90
2019-03-02T00:42:17.056Z,11.53
2019-03-02T00:44:45.258Z,12.03
2019-03-02T00:47:13.801Z,11.63
2019-03-02T00:49:42.350Z,12.40
2019-03-02T00:52:10.983Z,13.00
2019-03-02T00:54:39.565Z,12.90
2019-03-02T00:57:08.140Z,12.97
2019-03-02T00:59:39.373Z,12.03
2019-03-02T01:04:42.057Z,12.10
2019-03-02T01:07:10.597Z,12.80
2019-03-02T01:09:39.145Z,12.60
2019-03-02T01:12:09.126Z,13.10
2019-03-02T01:14:37.841Z,12.77
2019-03-02T01:17:06.809Z,12.70
2019-03-02T01:19:35.815Z,12.60
2019-03-02T01:22:04.374Z,12.90
2019-03-02T01:24:35.617Z,13.00
2019-03-02T01:27:43.218Z,12.33
2019-03-02T01:30:51.722Z,13.27
2019-03-02T01:33:20.249Z,12.27
2019-03-02T01:35:48.827Z,13.47
2019-03-02T01:38:18.690Z,12.13
2019-03-02T01:40:47.619Z,13.17
2019-03-02T01:43:16.249Z,12.10
2019-03-02T01:45:44.903Z,13.17
2019-03-02T01:48:13.517Z,12.93
2019-03-02T01:50:43.973Z,13.70
2019-03-02T01:53:12.505Z,13.37
2019-03-02T01:55:40.991Z,13.60
2019-03-02T01:58:09.635Z,12.40
2019-03-02T02:00:38.171Z,12.40
2019-03-02T02:03:08.491Z,12.37
2019-03-02T02:05:37.160Z,13.47
2019-03-02T02:08:05.669Z,13.27
2019-03-02T02:10:34.404Z,13.13
2019-03-02T02:15:51.982Z,12.70
2019-03-02T02:18:20.553Z,13.30
2019-03-02T02:20:50.379Z,13.33
2019-03-02T02:23:19.892Z,13.27
2019-03-02T02:25:48.462Z,13.63
2019-03-02T02:28:16.996Z,12.93
2019-03-02T02:30:45.557Z,13.20
2019-03-02T02:33:14.128Z,14.67
2019-03-02T02:35:42.689Z,12.83
2019-03-02T02:38:16.113Z,13.63
2019-03-02T02:40:41.989Z,13.60
2019-03-02T02:43:10.449Z,13.10
2019-03-02T02:45:39.011Z,13.67
2019-03-02T02:48:07.891Z,13.50
2019-03-02T02:50:36.562Z,12.87
2019-03-02T02:53:06.827Z,12.83
2019-03-02T02:55:36.154Z,13.70
2019-03-02T02:58:05.735Z,12.73
2019-03-02T03:00:35.754Z,12.83
2019-03-02T03:03:04.534Z,13.07
2019-03-02T03:05:33.195Z,13.00
2019-03-02T03:08:01.825Z,13.60
2019-03-02T03:13:19.535Z,13.00
2019-03-02T03:18:37.052Z,13.43
2019-03-02T03:21:05.639Z,14.07
2019-03-02T03:23:34.203Z,13.00
2019-03-02T03:26:22.525Z,14.07
2019-03-02T03:34:01.727Z,12.30
2019-03-02T03:36:33.873Z,12.57
2019-03-02T03:39:02.692Z,13.10
2019-03-02T03:41:30.910Z,12.80
2019-03-02T03:43:59.506Z,13.50
2019-03-02T03:46:27.950Z,13.23
2019-03-02T03:48:57.823Z,14.30
2019-03-02T03:51:30.460Z,13.47
2019-03-02T03:54:01.742Z,13.73
2019-03-02T03:57:07.168Z,13.80
2019-03-02T03:59:35.907Z,13.27
2019-03-02T04:02:04.469Z,14.10
2019-03-02T04:04:33.014Z,13.43
2019-03-02T04:07:06.318Z,14.10
2019-03-02T04:09:31.845Z,13.47
2019-03-02T04:12:00.486Z,13.73
2019-03-02T04:14:29.029Z,14.43
2019-03-02T04:17:00.555Z,13.87
2019-03-02T04:19:47.493Z,14.20
2019-03-02T04:22:55.958Z,13.80
2019-03-02T04:25:24.565Z,14.20
2019-03-02T04:27:55.893Z,13.60
2019-03-02T04:30:30.584Z,13.50
2019-03-02T04:32:53.869Z,14.40
2019-03-02T04:35:22.410Z,14.43
2019-03-02T04:37:50.980Z,14.60
2019-03-02T04:40:23.314Z,14.03
2019-03-02T04:45:25.174Z,14.47
2019-03-02T04:47:54.606Z,14.83
2019-03-02T04:50:26.942Z,13.93
2019-03-02T04:52:54.795Z,14.33
2019-03-02T04:55:23.370Z,15.20
2019-03-02T04:57:52.058Z,14.83
2019-03-02T05:00:20.675Z,14.13
2019-03-02T05:02:51.600Z,14.80
2019-03-02T05:05:19.444Z,15.17
2019-03-02T05:07:48.041Z,14.37
2019-03-02T05:10:16.674Z,15.60
2019-03-02T05:12:45.278Z,16.93
2019-03-02T05:15:34.673Z,15.03
2019-03-02T05:18:03.221Z,15.07
2019-03-02T05:20:32.629Z,16.43
2019-03-02T05:23:01.964Z,14.83
2019-03-02T05:28:18.280Z,15.13
2019-03-02T05:30:46.757Z,15.03
2019-03-02T05:33:15.311Z,14.47
2019-03-02T05:35:43.869Z,14.93
2019-03-02T05:38:15.261Z,15.07
2019-03-02T05:40:42.727Z,14.90
2019-03-02T05:43:11.193Z,15.40
2019-03-02T05:45:39.689Z,16.70
2019-03-02T05:48:08.255Z,14.67
2019-03-02T05:50:36.850Z,16.70
2019-03-02T05:53:05.331Z,16.53
2019-03-02T05:55:33.874Z,15.30
2019-03-02T05:58:02.363Z,15.23
2019-03-02T06:00:33.869Z,16.70
2019-03-02T06:03:01.304Z,15.63
2019-03-02T06:05:29.874Z,16.20
2019-03-02T06:08:00.517Z,16.43
2019-03-02T06:10:29.039Z,15.27
2019-03-02T06:12:57.614Z,16.20
2019-03-02T06:15:26.215Z,16.73
2019-03-02T06:17:54.686Z,16.87
2019-03-02T06:20:23.189Z,16.30
2019-03-02T06:22:52.334Z,16.63
2019-03-02T06:25:23.190Z,15.50
2019-03-02T06:27:52.356Z,16.60
2019-03-02T06:30:40.650Z,15.90
2019-03-02T06:33:10.498Z,17.03
2019-03-02T06:35:39.458Z,14.93
2019-03-02T06:38:08.015Z,15.80
2019-03-02T06:40:36.631Z,17.10
2019-03-02T06:43:05.246Z,16.57
2019-03-02T06:45:33.789Z,16.87
2019-03-02T06:48:02.351Z,16.30
2019-03-02T06:50:31.791Z,17.07
2019-03-02T06:53:01.742Z,16.37
2019-03-02T06:55:31.475Z,17.00
2019-03-02T06:57:59.980Z,16.67
2019-03-02T07:00:28.584Z,17.10
2019-03-02T07:02:57.197Z,16.50
2019-03-02T07:05:25.813Z,17.33
2019-03-02T07:07:57.292Z,18.57
2019-03-02T07:10:24.829Z,17.20
2019-03-02T07:15:43.769Z,17.90
2019-03-02T07:18:31.927Z,17.57
2019-03-02T07:21:02.934Z,20.20
2019-03-02T07:23:30.854Z,17.83
2019-03-02T07:25:59.488Z,16.90
2019-03-02T07:28:28.205Z,17.07
2019-03-02T07:30:56.765Z,19.00
2019-03-02T07:33:25.326Z,17.80
2019-03-02T07:35:55.507Z,18.67
2019-03-02T07:38:24.636Z,17.57
2019-03-02T07:43:47.871Z,19.20
2019-03-02T07:46:16.519Z,18.73
2019-03-02T07:48:45.175Z,18.80
2019-03-02T07:51:13.860Z,18.57
2019-03-02T07:53:42.399Z,18.37
2019-03-02T07:56:32.484Z,19.07
2019-03-02T07:59:00.563Z,19.03
2019-03-02T08:01:29.117Z,18.63
2019-03-02T08:04:38.473Z,16.37
2019-03-02T08:07:07.988Z,18.63
2019-03-02T08:09:36.616Z,17.80
2019-03-02T08:12:05.135Z,17.30
2019-03-02T08:14:33.769Z,17.03
2019-03-02T08:17:02.466Z,18.60
2019-03-02T08:19:31.028Z,18.23
2019-03-02T08:21:59.631Z,18.20
2019-03-02T08:24:28.248Z,18.17
2019-03-02T08:26:56.867Z,18.00
2019-03-02T08:29:25.454Z,17.50
2019-03-02T08:31:53.997Z,17.40
2019-03-02T08:34:22.674Z,18.53
2019-03-02T08:36:54.233Z,17.93
2019-03-02T08:39:21.952Z,17.80
2019-03-02T08:41:50.711Z,17.40
2019-03-02T08:44:19.893Z,18.60
2019-03-02T08:46:49.928Z,18.33
2019-03-02T08:49:18.843Z,17.50
2019-03-02T08:51:47.416Z,15.57
2019-03-02T08:54:17.884Z,17.43
2019-03-02T08:56:47.726Z,17.17
2019-03-02T08:59:16.781Z,17.43
2019-03-02T09:01:45.431Z,17.00
2019-03-02T09:04:15.114Z,17.43
2019-03-02T09:06:44.435Z,14.80
2019-03-02T09:09:13.039Z,16.10
2019-03-02T09:11:44.439Z,15.93
2019-03-02T09:14:12.697Z,15.90
2019-03-02T09:16:42.619Z,15.43
2019-03-02T09:19:12.597Z,15.57
2019-03-02T09:21:41.313Z,15.50
2019-03-02T09:24:13.012Z,17.10
2019-03-02T09:26:40.465Z,16.50
2019-03-02T09:29:08.966Z,15.30
2019-03-02T09:34:27.518Z,16.37
2019-03-02T09:36:56.805Z,15.77
2019-03-02T09:39:25.311Z,16.53
2019-03-02T09:41:53.894Z,15.87
2019-03-02T09:44:22.541Z,16.10
2019-03-02T09:46:51.177Z,16.53
2019-03-02T09:49:19.846Z,15.43
2019-03-02T09:51:49.317Z,15.00
2019-03-02T09:54:19.453Z,15.80
2019-03-02T09:56:47.851Z,15.10
2019-03-02T09:59:16.678Z,16.47
2019-03-02T10:01:45.256Z,15.30
2019-03-02T10:04:13.770Z,15.90
2019-03-02T10:06:42.433Z,16.30
2019-03-02T10:09:50.903Z,16.57
2019-03-02T10:12:19.437Z,16.37
2019-03-02T10:14:48.108Z,16.00
2019-03-02T10:17:16.651Z,15.67
2019-03-02T10:19:45.242Z,16.97
2019-03-02T10:22:14.193Z,15.73
2019-03-02T10:24:42.741Z,15.80
2019-03-02T10:27:11.323Z,15.20
2019-03-02T10:29:39.950Z,15.50
2019-03-02T10:32:21.506Z,14.60
2019-03-02T10:34:50.030Z,15.00
2019-03-02T10:37:18.658Z,16.83
2019-03-02T10:39:47.214Z,15.80
2019-03-02T10:42:15.888Z,16.20
2019-03-02T10:44:44.638Z,16.27
2019-03-02T10:47:14.859Z,15.67
2019-03-02T10:49:44.648Z,16.13
2019-03-02T10:52:14.469Z,14.50
2019-03-02T10:54:44.716Z,16.33
2019-03-02T10:57:13.230Z,15.67
2019-03-02T10:59:41.822Z,14.83
2019-03-02T11:02:10.902Z,14.20
2019-03-02T11:04:58.604Z,14.20
2019-03-02T11:10:35.453Z,13.93
2019-03-02T11:13:23.199Z,13.40
2019-03-02T11:16:10.902Z,14.40
2019-03-02T11:18:58.612Z,12.97
2019-03-02T11:24:35.894Z,12.63
2019-03-02T11:27:23.546Z,12.90
2019-03-02T11:32:46.762Z,12.33
2019-03-02T11:35:34.475Z,12.37
2019-03-02T11:38:22.075Z,12.50
2019-03-02T11:41:10.337Z,12.27
2019-03-02T11:43:57.991Z,12.47
2019-03-02T11:49:30.046Z,12.97
2019-03-02T11:52:10.530Z,13.27
2019-03-02T11:55:00.906Z,12.30
2019-03-02T12:03:18.249Z,13.73
2019-03-02T12:06:07.035Z,13.20
2019-03-02T12:11:31.491Z,13.17
2019-03-02T12:17:00.131Z,14.30
2019-03-02T12:19:48.069Z,13.27
2019-03-02T12:22:35.727Z,12.90
2019-03-02T12:28:18.186Z,14.40
2019-03-02T12:31:05.886Z,13.63
2019-03-02T12:33:54.013Z,14.73
2019-03-02T12:36:43.054Z,13.37
2019-03-02T12:39:30.634Z,13.80
2019-03-02T12:42:18.348Z,14.03
2019-03-02T12:47:55.142Z,14.37
2019-03-02T12:50:42.859Z,13.10
2019-03-02T12:53:30.513Z,13.50
2019-03-02T12:56:18.226Z,13.83
2019-03-02T12:59:05.913Z,12.97
2019-03-02T13:04:32.570Z,14.33
2019-03-02T13:07:20.233Z,12.93
2019-03-02T13:10:07.837Z,14.30
2019-03-02T13:12:55.534Z,13.70
2019-03-02T13:18:32.521Z,13.13
2019-03-02T13:24:09.637Z,14.83
2019-03-02T13:26:57.243Z,14.90
2019-03-02T13:34:55.463Z,15.13
2019-03-02T13:37:43.128Z,14.53
2019-03-02T13:40:33.571Z,13.50
2019-03-02T13:46:09.637Z,13.73
2019-03-02T13:48:58.176Z,13.67
2019-03-02T13:51:46.715Z,13.30
2019-03-02T13:57:23.842Z,13.30
2019-03-02T14:00:11.537Z,13.03
2019-03-02T14:02:59.682Z,13.83
2019-03-02T14:05:47.446Z,13.47
2019-03-02T14:11:32.464Z,13.33
2019-03-02T14:14:21.047Z,12.90
2019-03-02T14:19:57.934Z,14.33
2019-03-02T14:22:48.974Z,12.40
2019-03-02T14:30:46.164Z,12.83
2019-03-02T14:33:34.135Z,13.10
2019-03-02T14:39:18.213Z,12.70
2019-03-02T14:51:07.137Z,13.07
2019-03-02T14:54:09.481Z,12.70
2019-03-02T14:56:48.375Z,12.93
2019-03-02T14:59:37.752Z,11.90
2019-03-02T15:07:59.970Z,12.00
2019-03-02T15:10:48.068Z,12.33
2019-03-02T15:13:35.761Z,12.90
2019-03-02T15:16:44.223Z,15.30
2019-03-02T15:19:31.851Z,12.20
2019-03-02T15:22:20.444Z,11.97
2019-03-02T15:25:08.991Z,13.70
2019-03-02T15:27:57.415Z,13.40
2019-03-02T15:33:37.635Z,12.70
2019-03-02T15:36:24.542Z,12.70
2019-03-02T15:39:12.813Z,12.10
2019-03-02T15:44:50.745Z,13.07
2019-03-02T15:47:38.423Z,12.77
2019-03-02T15:50:46.877Z,12.10
2019-03-02T15:56:24.464Z,11.60
2019-03-02T16:04:39.083Z,12.10
2019-03-02T16:10:05.595Z,12.90
2019-03-02T16:15:48.967Z,12.43
2019-03-02T16:18:38.442Z,12.50
2019-03-02T16:21:26.878Z,13.23
2019-03-02T16:24:14.376Z,12.33
2019-03-02T16:29:40.871Z,12.40
2019-03-02T16:32:51.825Z,12.10
2019-03-02T16:35:40.383Z,13.17
2019-03-02T16:38:31.015Z,12.63
2019-03-02T16:41:17.505Z,12.53
2019-03-02T16:46:44.450Z,12.00
2019-03-02T16:49:32.174Z,12.10
2019-03-02T16:52:20.136Z,13.17
2019-03-02T16:55:09.510Z,13.03
2019-03-02T16:57:57.314Z,12.93
2019-03-02T17:00:48.604Z,12.00
2019-03-02T17:03:35.002Z,13.20
2019-03-02T17:11:43.422Z,12.90
2019-03-02T17:14:31.120Z,13.50
2019-03-02T17:17:18.807Z,12.87
2019-03-02T17:25:20.868Z,13.37
2019-03-02T17:28:08.530Z,13.37
2019-03-02T17:30:58.195Z,13.17
2019-03-02T17:33:45.651Z,13.50
2019-03-02T17:39:12.310Z,13.10
2019-03-02T17:44:35.690Z,13.80
2019-03-02T17:52:34.672Z,14.17
2019-03-02T17:58:11.532Z,14.67
2019-03-02T18:00:59.195Z,15.40
2019-03-02T18:03:50.180Z,14.60
2019-03-02T18:09:05.750Z,15.70
2019-03-02T18:11:54.751Z,15.97
2019-03-02T18:14:44.196Z,15.60
2019-03-02T18:17:32.308Z,16.00
2019-03-02T18:22:56.127Z,15.93
2019-03-02T18:25:25.022Z,15.53
2019-03-02T18:30:24.316Z,16.87
2019-03-02T18:35:53.495Z,16.53
2019-03-02T18:38:22.177Z,17.13
2019-03-02T18:40:52.155Z,17.93
2019-03-02T18:43:21.234Z,18.33
2019-03-02T18:45:49.941Z,18.07
2019-03-02T18:54:22.977Z,17.80
2019-03-02T18:57:31.436Z,18.30
2019-03-02T19:00:00.137Z,16.90
2019-03-02T19:02:29.144Z,17.60
2019-03-02T19:04:59.553Z,19.23
2019-03-02T19:07:28.091Z,19.03
2019-03-02T19:09:56.749Z,18.57
2019-03-02T19:12:28.004Z,21.20
2019-03-02T19:14:57.793Z,18.50
2019-03-02T19:17:26.116Z,17.70
2019-03-02T19:19:54.891Z,19.73
2019-03-02T19:22:23.734Z,19.03
2019-03-02T19:24:52.448Z,19.50
2019-03-02T19:27:22.821Z,18.80
2019-03-02T19:29:51.340Z,18.97
2019-03-02T19:32:19.961Z,18.47
2019-03-02T19:34:48.680Z,18.30
2019-03-02T19:37:17.277Z,18.97
2019-03-02T19:39:45.836Z,17.60
2019-03-02T19:53:52.082Z,18.50
2019-03-02T19:56:21.290Z,18.63
2019-03-02T19:58:50.635Z,19.47
2019-03-02T20:06:36.116Z,19.60
2019-03-02T20:09:44.640Z,21.47
2019-03-02T20:12:13.416Z,20.60
2019-03-02T20:14:42.117Z,20.17
2019-03-02T20:17:10.821Z,20.60
2019-03-02T20:22:31.731Z,19.60
2019-03-02T20:25:00.577Z,21.33
2019-03-02T20:27:29.232Z,21.07
2019-03-02T20:29:57.946Z,20.50
2019-03-02T20:32:26.637Z,20.80
2019-03-02T20:34:55.404Z,19.70
2019-03-02T20:37:24.051Z,20.50
2019-03-02T20:39:52.708Z,20.60
2019-03-02T20:42:40.458Z,21.40
2019-03-02T20:45:48.960Z,22.90
2019-03-02T20:48:57.683Z,22.53
2019-03-02T20:51:26.336Z,22.87
2019-03-02T20:53:54.880Z,22.33
2019-03-02T20:56:23.494Z,21.83
2019-03-02T20:58:54.636Z,22.60
2019-03-02T21:04:13.212Z,22.20
2019-03-02T21:06:42.304Z,22.60
2019-03-02T21:09:11.104Z,22.20
2019-03-02T21:11:39.592Z,23.00
2019-03-02T21:14:08.245Z,22.83
2019-03-02T21:16:36.884Z,23.37
2019-03-02T21:19:24.631Z,24.00
2019-03-02T21:21:53.303Z,23.40
2019-03-02T21:24:21.867Z,23.10
2019-03-02T21:26:50.324Z,23.90
2019-03-02T21:29:18.934Z,22.40
2019-03-02T21:31:47.603Z,23.60
2019-03-02T21:34:16.261Z,23.57
2019-03-02T21:36:44.894Z,22.50
2019-03-02T21:39:53.459Z,23.07
2019-03-02T21:42:22.018Z,23.20
2019-03-02T21:44:52.631Z,23.97
2019-03-02T21:47:20.806Z,22.47
2019-03-02T21:49:49.348Z,22.63
2019-03-02T21:52:18.319Z,22.87
2019-03-02T21:54:48.446Z,22.40
2019-03-02T21:57:17.080Z,23.80
2019-03-02T21:59:45.641Z,21.60
2019-03-02T22:02:14.571Z,22.03
2019-03-02T22:04:43.150Z,22.97
2019-03-02T22:07:11.870Z,23.80
2019-03-02T22:09:40.443Z,21.77
2019-03-02T22:17:58.043Z,22.07
2019-03-02T22:20:26.680Z,23.50
2019-03-02T22:22:55.277Z,23.17
2019-03-02T22:26:03.997Z,23.93
2019-03-02T22:28:32.953Z,23.90
2019-03-02T22:31:01.842Z,23.23
2019-03-02T22:33:30.409Z,24.07
2019-03-02T22:35:58.813Z,24.60
2019-03-02T22:38:27.264Z,25.37
2019-03-02T22:40:55.963Z,23.67
2019-03-02T22:43:24.403Z,23.33
2019-03-02T22:45:53.183Z,22.20
2019-03-02T22:48:21.868Z,23.77
2019-03-02T22:50:50.400Z,24.33
2019-03-02T22:53:18.977Z,22.57
2019-03-02T22:55:47.642Z,22.27
2019-03-02T23:01:49.705Z,24.50
2019-03-02T23:04:37.680Z,23.43
2019-03-02T23:07:06.323Z,24.60
2019-03-02T23:09:35.217Z,25.27
2019-03-02T23:14:52.872Z,24.30
2019-03-02T23:17:21.425Z,24.80
2019-03-02T23:19:49.974Z,26.53
2019-03-02T23:22:18.574Z,24.37
2019-03-02T23:24:47.594Z,23.93
2019-03-02T23:27:16.591Z,22.97
2019-03-02T23:29:45.199Z,23.60
2019-03-02T23:32:13.787Z,24.10
2019-03-02T23:34:42.401Z,24.80
2019-03-02T23:37:10.995Z,23.50
2019-03-02T23:39:39.639Z,24.07
2019-03-02T23:42:08.340Z,25.13
2019-03-02T23:44:37.004Z,24.37
2019-03-02T23:47:05.737Z,25.63
2019-03-02T23:49:34.278Z,23.67
2019-03-02T23:52:02.810Z,24.10
2019-03-02T23:54:32.044Z,24.30
2019-03-02T23:57:00.929Z,23.70
2019-03-02T23:59:29.632Z,25.23
